sensor_id;sensor_type;location;lat;lon;timestamp;P1;durP1;ratioP1;P2;durP2;ratioP2
47309;SDS011;33046;52.270;6.832;2023-04-29T00:01:53;23.73;;;21.33;;
47309;SDS011;33046;52.270;6.832;2023-04-29T00:04:00;23.80;;;21.38;;
47309;SDS011;33046;52.270;6.832;2023-04-29T00:06:07;32.08;;;21.27;;
47309;SDS011;33046;52.270;6.832;2023-04-29T00:08:15;23.13;;;20.88;;
47309;SDS011;33046;52.270;6.832;2023-04-29T00:10:22;24.70;;;22.13;;
47309;SDS011;33046;52.270;6.832;2023-04-29T00:12:28;23.08;;;20.67;;
47309;SDS011;33046;52.270;6.832;2023-04-29T00:14:35;23.77;;;21.38;;
47309;SDS011;33046;52.270;6.832;2023-04-29T00:16:42;23.75;;;21.35;;
47309;SDS011;33046;52.270;6.832;2023-04-29T00:18:49;24.67;;;22.13;;
47309;SDS011;33046;52.270;6.832;2023-04-29T00:20:55;25.80;;;23.13;;
47309;SDS011;33046;52.270;6.832;2023-04-29T00:23:02;25.98;;;23.27;;
47309;SDS011;33046;52.270;6.832;2023-04-29T00:25:10;27.75;;;24.85;;
47309;SDS011;33046;52.270;6.832;2023-04-29T00:27:17;28.00;;;25.08;;
47309;SDS011;33046;52.270;6.832;2023-04-29T00:29:25;28.40;;;25.08;;
47309;SDS011;33046;52.270;6.832;2023-04-29T00:31:32;25.65;;;22.75;;
47309;SDS011;33046;52.270;6.832;2023-04-29T00:33:39;28.80;;;24.95;;
47309;SDS011;33046;52.270;6.832;2023-04-29T00:35:46;28.23;;;25.23;;
47309;SDS011;33046;52.270;6.832;2023-04-29T00:37:53;26.15;;;23.48;;
47309;SDS011;33046;52.270;6.832;2023-04-29T00:40:00;28.02;;;24.88;;
47309;SDS011;33046;52.270;6.832;2023-04-29T00:42:08;28.08;;;25.17;;
47309;SDS011;33046;52.270;6.832;2023-04-29T00:44:16;28.45;;;25.17;;
47309;SDS011;33046;52.270;6.832;2023-04-29T00:46:22;27.80;;;24.90;;
47309;SDS011;33046;52.270;6.832;2023-04-29T00:48:29;28.67;;;25.55;;
47309;SDS011;33046;52.270;6.832;2023-04-29T00:50:36;29.50;;;26.05;;
47309;SDS011;33046;52.270;6.832;2023-04-29T00:52:43;27.48;;;24.67;;
47309;SDS011;33046;52.270;6.832;2023-04-29T00:54:50;27.30;;;24.02;;
47309;SDS011;33046;52.270;6.832;2023-04-29T00:56:57;28.75;;;25.75;;
47309;SDS011;33046;52.270;6.832;2023-04-29T00:59:07;27.20;;;24.33;;
47309;SDS011;33046;52.270;6.832;2023-04-29T01:01:14;28.52;;;25.60;;
47309;SDS011;33046;52.270;6.832;2023-04-29T01:03:21;28.67;;;24.38;;
47309;SDS011;33046;52.270;6.832;2023-04-29T01:05:28;27.33;;;24.40;;
47309;SDS011;33046;52.270;6.832;2023-04-29T01:07:36;28.08;;;25.05;;
47309;SDS011;33046;52.270;6.832;2023-04-29T01:09:52;26.08;;;23.58;;
47309;SDS011;33046;52.270;6.832;2023-04-29T01:12:10;27.10;;;24.20;;
47309;SDS011;33046;52.270;6.832;2023-04-29T01:14:26;27.52;;;24.42;;
47309;SDS011;33046;52.270;6.832;2023-04-29T01:16:36;27.27;;;23.27;;
47309;SDS011;33046;52.270;6.832;2023-04-29T01:18:49;26.27;;;23.50;;
47309;SDS011;33046;52.270;6.832;2023-04-29T01:21:03;25.88;;;23.17;;
47309;SDS011;33046;52.270;6.832;2023-04-29T01:23:10;25.15;;;22.60;;
47309;SDS011;33046;52.270;6.832;2023-04-29T01:25:20;26.05;;;23.25;;
47309;SDS011;33046;52.270;6.832;2023-04-29T01:27:55;25.63;;;22.88;;
47309;SDS011;33046;52.270;6.832;2023-04-29T01:30:10;27.08;;;24.15;;
47309;SDS011;33046;52.270;6.832;2023-04-29T01:32:25;26.02;;;23.33;;
47309;SDS011;33046;52.270;6.832;2023-04-29T01:34:43;26.58;;;23.83;;
47309;SDS011;33046;52.270;6.832;2023-04-29T01:36:56;26.13;;;23.48;;
47309;SDS011;33046;52.270;6.832;2023-04-29T01:39:12;25.08;;;22.58;;
47309;SDS011;33046;52.270;6.832;2023-04-29T01:41:30;24.15;;;21.65;;
47309;SDS011;33046;52.270;6.832;2023-04-29T01:43:51;25.00;;;22.23;;
47309;SDS011;33046;52.270;6.832;2023-04-29T01:46:03;24.85;;;22.00;;
47309;SDS011;33046;52.270;6.832;2023-04-29T01:48:11;23.00;;;20.70;;
47309;SDS011;33046;52.270;6.832;2023-04-29T01:50:19;25.52;;;22.85;;
47309;SDS011;33046;52.270;6.832;2023-04-29T01:52:26;25.27;;;21.67;;
47309;SDS011;33046;52.270;6.832;2023-04-29T01:54:34;23.48;;;21.00;;
47309;SDS011;33046;52.270;6.832;2023-04-29T01:56:43;24.90;;;21.42;;
47309;SDS011;33046;52.270;6.832;2023-04-29T01:59:02;23.80;;;21.35;;
47309;SDS011;33046;52.270;6.832;2023-04-29T02:01:35;23.67;;;21.00;;
47309;SDS011;33046;52.270;6.832;2023-04-29T02:03:42;23.23;;;20.80;;
47309;SDS011;33046;52.270;6.832;2023-04-29T02:05:50;22.75;;;19.88;;
47309;SDS011;33046;52.270;6.832;2023-04-29T02:07:57;22.38;;;19.98;;
47309;SDS011;33046;52.270;6.832;2023-04-29T02:10:04;22.15;;;19.40;;
47309;SDS011;33046;52.270;6.832;2023-04-29T02:12:15;22.70;;;20.35;;
47309;SDS011;33046;52.270;6.832;2023-04-29T02:14:22;20.58;;;18.50;;
47309;SDS011;33046;52.270;6.832;2023-04-29T02:16:29;22.38;;;20.08;;
47309;SDS011;33046;52.270;6.832;2023-04-29T02:18:40;22.55;;;20.35;;
47309;SDS011;33046;52.270;6.832;2023-04-29T02:20:48;20.67;;;18.15;;
47309;SDS011;33046;52.270;6.832;2023-04-29T02:22:54;23.67;;;21.27;;
47309;SDS011;33046;52.270;6.832;2023-04-29T02:25:01;22.75;;;19.70;;
47309;SDS011;33046;52.270;6.832;2023-04-29T02:27:10;22.45;;;20.02;;
47309;SDS011;33046;52.270;6.832;2023-04-29T02:29:18;22.15;;;19.30;;
47309;SDS011;33046;52.270;6.832;2023-04-29T02:31:25;22.25;;;18.92;;
47309;SDS011;33046;52.270;6.832;2023-04-29T02:33:33;21.45;;;19.30;;
47309;SDS011;33046;52.270;6.832;2023-04-29T02:35:39;22.48;;;20.25;;
47309;SDS011;33046;52.270;6.832;2023-04-29T02:37:46;22.25;;;20.05;;
47309;SDS011;33046;52.270;6.832;2023-04-29T02:39:53;20.63;;;18.48;;
47309;SDS011;33046;52.270;6.832;2023-04-29T02:42:00;21.42;;;18.75;;
47309;SDS011;33046;52.270;6.832;2023-04-29T02:44:07;21.63;;;19.33;;
47309;SDS011;33046;52.270;6.832;2023-04-29T02:46:15;24.13;;;19.90;;
47309;SDS011;33046;52.270;6.832;2023-04-29T02:48:22;21.63;;;19.33;;
47309;SDS011;33046;52.270;6.832;2023-04-29T02:50:28;22.40;;;19.55;;
47309;SDS011;33046;52.270;6.832;2023-04-29T02:52:35;21.25;;;19.05;;
47309;SDS011;33046;52.270;6.832;2023-04-29T02:54:42;18.98;;;16.90;;
47309;SDS011;33046;52.270;6.832;2023-04-29T02:56:49;20.92;;;18.77;;
47309;SDS011;33046;52.270;6.832;2023-04-29T02:58:56;22.50;;;20.13;;
47309;SDS011;33046;52.270;6.832;2023-04-29T03:01:03;19.83;;;17.77;;
47309;SDS011;33046;52.270;6.832;2023-04-29T03:03:11;18.80;;;17.00;;
47309;SDS011;33046;52.270;6.832;2023-04-29T03:05:18;25.38;;;19.02;;
47309;SDS011;33046;52.270;6.832;2023-04-29T03:07:25;20.85;;;18.67;;
47309;SDS011;33046;52.270;6.832;2023-04-29T03:09:32;20.55;;;17.67;;
47309;SDS011;33046;52.270;6.832;2023-04-29T03:11:39;19.42;;;17.35;;
47309;SDS011;33046;52.270;6.832;2023-04-29T03:13:46;19.10;;;17.05;;
47309;SDS011;33046;52.270;6.832;2023-04-29T03:15:52;19.33;;;17.35;;
47309;SDS011;33046;52.270;6.832;2023-04-29T03:17:59;19.23;;;17.30;;
47309;SDS011;33046;52.270;6.832;2023-04-29T03:20:08;21.83;;;15.93;;
47309;SDS011;33046;52.270;6.832;2023-04-29T03:22:15;19.65;;;17.63;;
47309;SDS011;33046;52.270;6.832;2023-04-29T03:24:22;18.67;;;16.70;;
47309;SDS011;33046;52.270;6.832;2023-04-29T03:26:29;19.60;;;17.48;;
47309;SDS011;33046;52.270;6.832;2023-04-29T03:28:35;21.33;;;16.90;;
47309;SDS011;33046;52.270;6.832;2023-04-29T03:30:42;18.92;;;17.02;;
47309;SDS011;33046;52.270;6.832;2023-04-29T03:32:49;20.55;;;16.92;;
47309;SDS011;33046;52.270;6.832;2023-04-29T03:34:56;20.30;;;17.80;;
47309;SDS011;33046;52.270;6.832;2023-04-29T03:37:27;18.10;;;15.60;;
47309;SDS011;33046;52.270;6.832;2023-04-29T03:39:46;20.50;;;15.88;;
47309;SDS011;33046;52.270;6.832;2023-04-29T03:41:53;17.45;;;14.95;;
47309;SDS011;33046;52.270;6.832;2023-04-29T03:44:01;19.45;;;15.95;;
47309;SDS011;33046;52.270;6.832;2023-04-29T03:46:08;19.38;;;17.35;;
47309;SDS011;33046;52.270;6.832;2023-04-29T03:48:15;19.52;;;16.75;;
47309;SDS011;33046;52.270;6.832;2023-04-29T03:50:22;17.70;;;15.88;;
47309;SDS011;33046;52.270;6.832;2023-04-29T03:52:30;20.48;;;18.08;;
47309;SDS011;33046;52.270;6.832;2023-04-29T03:54:42;17.75;;;15.82;;
47309;SDS011;33046;52.270;6.832;2023-04-29T03:56:50;20.27;;;17.65;;
47309;SDS011;33046;52.270;6.832;2023-04-29T03:58:57;19.17;;;17.17;;
47309;SDS011;33046;52.270;6.832;2023-04-29T04:01:05;20.20;;;17.35;;
47309;SDS011;33046;52.270;6.832;2023-04-29T04:03:19;23.23;;;17.80;;
47309;SDS011;33046;52.270;6.832;2023-04-29T04:05:26;24.77;;;19.38;;
47309;SDS011;33046;52.270;6.832;2023-04-29T04:07:39;21.52;;;19.38;;
47309;SDS011;33046;52.270;6.832;2023-04-29T04:10:05;21.95;;;19.63;;
47309;SDS011;33046;52.270;6.832;2023-04-29T04:12:12;23.35;;;20.70;;
47309;SDS011;33046;52.270;6.832;2023-04-29T04:14:19;24.73;;;20.85;;
47309;SDS011;33046;52.270;6.832;2023-04-29T04:16:26;26.13;;;20.58;;
47309;SDS011;33046;52.270;6.832;2023-04-29T04:18:33;23.55;;;20.92;;
47309;SDS011;33046;52.270;6.832;2023-04-29T04:20:40;24.88;;;20.63;;
47309;SDS011;33046;52.270;6.832;2023-04-29T04:22:50;24.85;;;22.20;;
47309;SDS011;33046;52.270;6.832;2023-04-29T04:25:02;27.95;;;22.58;;
47309;SDS011;33046;52.270;6.832;2023-04-29T04:27:09;27.70;;;22.13;;
47309;SDS011;33046;52.270;6.832;2023-04-29T04:29:21;28.55;;;22.30;;
47309;SDS011;33046;52.270;6.832;2023-04-29T04:31:37;23.10;;;20.65;;
47309;SDS011;33046;52.270;6.832;2023-04-29T04:33:46;24.63;;;20.38;;
47309;SDS011;33046;52.270;6.832;2023-04-29T04:35:53;26.50;;;21.58;;
47309;SDS011;33046;52.270;6.832;2023-04-29T04:38:01;28.42;;;20.85;;
47309;SDS011;33046;52.270;6.832;2023-04-29T04:40:08;26.52;;;22.23;;
47309;SDS011;33046;52.270;6.832;2023-04-29T04:42:29;29.85;;;22.95;;
47309;SDS011;33046;52.270;6.832;2023-04-29T04:44:37;23.52;;;20.92;;
47309;SDS011;33046;52.270;6.832;2023-04-29T04:46:46;25.10;;;21.13;;
47309;SDS011;33046;52.270;6.832;2023-04-29T04:48:57;26.52;;;20.38;;
47309;SDS011;33046;52.270;6.832;2023-04-29T04:51:09;26.35;;;21.00;;
47309;SDS011;33046;52.270;6.832;2023-04-29T04:53:18;24.95;;;21.02;;
47309;SDS011;33046;52.270;6.832;2023-04-29T04:55:46;27.40;;;22.05;;
47309;SDS011;33046;52.270;6.832;2023-04-29T04:57:53;23.83;;;21.23;;
47309;SDS011;33046;52.270;6.832;2023-04-29T05:00:01;25.23;;;19.35;;
47309;SDS011;33046;52.270;6.832;2023-04-29T05:02:07;24.27;;;21.70;;
47309;SDS011;33046;52.270;6.832;2023-04-29T05:04:14;25.73;;;22.10;;
47309;SDS011;33046;52.270;6.832;2023-04-29T05:06:21;24.33;;;20.20;;
47309;SDS011;33046;52.270;6.832;2023-04-29T05:08:30;26.58;;;19.42;;
47309;SDS011;33046;52.270;6.832;2023-04-29T05:10:39;22.70;;;18.98;;
47309;SDS011;33046;52.270;6.832;2023-04-29T05:12:46;25.88;;;20.52;;
47309;SDS011;33046;52.270;6.832;2023-04-29T05:14:53;25.60;;;19.50;;
47309;SDS011;33046;52.270;6.832;2023-04-29T05:17:00;22.60;;;19.23;;
47309;SDS011;33046;52.270;6.832;2023-04-29T05:19:07;23.48;;;19.77;;
47309;SDS011;33046;52.270;6.832;2023-04-29T05:21:17;21.27;;;17.65;;
47309;SDS011;33046;52.270;6.832;2023-04-29T05:23:24;24.67;;;18.30;;
47309;SDS011;33046;52.270;6.832;2023-04-29T05:25:32;21.05;;;18.85;;
47309;SDS011;33046;52.270;6.832;2023-04-29T05:27:39;24.25;;;17.23;;
47309;SDS011;33046;52.270;6.832;2023-04-29T05:29:50;19.65;;;16.77;;
47309;SDS011;33046;52.270;6.832;2023-04-29T05:31:57;20.70;;;18.02;;
47309;SDS011;33046;52.270;6.832;2023-04-29T05:34:04;20.30;;;16.85;;
47309;SDS011;33046;52.270;6.832;2023-04-29T05:36:11;20.40;;;17.52;;
47309;SDS011;33046;52.270;6.832;2023-04-29T05:38:18;21.48;;;17.98;;
47309;SDS011;33046;52.270;6.832;2023-04-29T05:40:44;25.58;;;18.17;;
47309;SDS011;33046;52.270;6.832;2023-04-29T05:43:06;20.60;;;18.23;;
47309;SDS011;33046;52.270;6.832;2023-04-29T05:45:13;20.67;;;18.52;;
47309;SDS011;33046;52.270;6.832;2023-04-29T05:47:20;19.40;;;17.17;;
47309;SDS011;33046;52.270;6.832;2023-04-29T05:49:27;19.83;;;16.40;;
47309;SDS011;33046;52.270;6.832;2023-04-29T05:51:34;23.25;;;18.40;;
47309;SDS011;33046;52.270;6.832;2023-04-29T05:53:41;19.70;;;16.40;;
47309;SDS011;33046;52.270;6.832;2023-04-29T05:55:49;21.27;;;16.65;;
47309;SDS011;33046;52.270;6.832;2023-04-29T05:57:56;21.25;;;17.70;;
47309;SDS011;33046;52.270;6.832;2023-04-29T06:00:03;19.50;;;17.02;;
47309;SDS011;33046;52.270;6.832;2023-04-29T06:02:18;22.80;;;17.77;;
47309;SDS011;33046;52.270;6.832;2023-04-29T06:04:25;20.50;;;18.15;;
47309;SDS011;33046;52.270;6.832;2023-04-29T06:06:58;20.35;;;16.88;;
47309;SDS011;33046;52.270;6.832;2023-04-29T06:09:22;19.35;;;16.60;;
47309;SDS011;33046;52.270;6.832;2023-04-29T06:11:33;22.83;;;16.73;;
47309;SDS011;33046;52.270;6.832;2023-04-29T06:13:40;22.13;;;16.83;;
47309;SDS011;33046;52.270;6.832;2023-04-29T06:15:47;22.90;;;17.15;;
47309;SDS011;33046;52.270;6.832;2023-04-29T06:17:55;21.63;;;17.10;;
47309;SDS011;33046;52.270;6.832;2023-04-29T06:20:02;20.90;;;16.17;;
47309;SDS011;33046;52.270;6.832;2023-04-29T06:22:09;18.65;;;14.80;;
47309;SDS011;33046;52.270;6.832;2023-04-29T06:24:22;20.15;;;15.95;;
47309;SDS011;33046;52.270;6.832;2023-04-29T06:26:29;20.10;;;16.23;;
47309;SDS011;33046;52.270;6.832;2023-04-29T06:28:37;20.65;;;15.75;;
47309;SDS011;33046;52.270;6.832;2023-04-29T06:30:44;24.88;;;15.90;;
47309;SDS011;33046;52.270;6.832;2023-04-29T06:32:52;18.80;;;15.30;;
47309;SDS011;33046;52.270;6.832;2023-04-29T06:34:59;17.13;;;15.43;;
47309;SDS011;33046;52.270;6.832;2023-04-29T06:37:25;19.35;;;15.30;;
47309;SDS011;33046;52.270;6.832;2023-04-29T06:39:45;19.55;;;14.90;;
47309;SDS011;33046;52.270;6.832;2023-04-29T06:42:12;18.65;;;15.18;;
47309;SDS011;33046;52.270;6.832;2023-04-29T06:44:56;20.88;;;16.15;;
47309;SDS011;33046;52.270;6.832;2023-04-29T06:47:18;17.80;;;15.43;;
47309;SDS011;33046;52.270;6.832;2023-04-29T06:49:45;18.45;;;15.48;;
47309;SDS011;33046;52.270;6.832;2023-04-29T06:51:52;18.42;;;15.55;;
47309;SDS011;33046;52.270;6.832;2023-04-29T06:53:59;19.88;;;16.40;;
47309;SDS011;33046;52.270;6.832;2023-04-29T06:56:06;21.45;;;15.10;;
47309;SDS011;33046;52.270;6.832;2023-04-29T06:58:13;22.08;;;15.18;;
47309;SDS011;33046;52.270;6.832;2023-04-29T07:00:21;18.58;;;15.10;;
47309;SDS011;33046;52.270;6.832;2023-04-29T07:02:28;22.98;;;17.08;;
47309;SDS011;33046;52.270;6.832;2023-04-29T07:04:35;18.90;;;14.85;;
47309;SDS011;33046;52.270;6.832;2023-04-29T07:06:42;20.48;;;16.17;;
47309;SDS011;33046;52.270;6.832;2023-04-29T07:08:49;16.73;;;14.93;;
47309;SDS011;33046;52.270;6.832;2023-04-29T07:10:56;20.70;;;15.32;;
47309;SDS011;33046;52.270;6.832;2023-04-29T07:13:03;20.80;;;15.40;;
47309;SDS011;33046;52.270;6.832;2023-04-29T07:15:10;20.33;;;15.23;;
47309;SDS011;33046;52.270;6.832;2023-04-29T07:17:18;19.55;;;15.73;;
47309;SDS011;33046;52.270;6.832;2023-04-29T07:19:25;16.77;;;14.13;;
47309;SDS011;33046;52.270;6.832;2023-04-29T07:21:32;18.25;;;13.18;;
47309;SDS011;33046;52.270;6.832;2023-04-29T07:23:39;20.83;;;14.43;;
47309;SDS011;33046;52.270;6.832;2023-04-29T07:25:45;21.55;;;13.82;;
47309;SDS011;33046;52.270;6.832;2023-04-29T07:27:53;16.40;;;14.70;;
47309;SDS011;33046;52.270;6.832;2023-04-29T07:29:59;19.35;;;14.73;;
47309;SDS011;33046;52.270;6.832;2023-04-29T07:32:07;17.48;;;15.27;;
47309;SDS011;33046;52.270;6.832;2023-04-29T07:34:17;18.77;;;14.68;;
47309;SDS011;33046;52.270;6.832;2023-04-29T07:36:24;18.08;;;14.60;;
47309;SDS011;33046;52.270;6.832;2023-04-29T07:38:31;19.48;;;14.75;;
47309;SDS011;33046;52.270;6.832;2023-04-29T07:40:37;17.35;;;13.18;;
47309;SDS011;33046;52.270;6.832;2023-04-29T07:42:44;18.50;;;13.63;;
47309;SDS011;33046;52.270;6.832;2023-04-29T07:44:51;16.20;;;13.57;;
47309;SDS011;33046;52.270;6.832;2023-04-29T07:46:58;16.00;;;12.82;;
47309;SDS011;33046;52.270;6.832;2023-04-29T07:49:05;19.17;;;13.88;;
47309;SDS011;33046;52.270;6.832;2023-04-29T07:51:13;16.13;;;12.10;;
47309;SDS011;33046;52.270;6.832;2023-04-29T07:53:21;17.00;;;13.63;;
47309;SDS011;33046;52.270;6.832;2023-04-29T07:55:29;17.85;;;13.52;;
47309;SDS011;33046;52.270;6.832;2023-04-29T07:57:38;16.58;;;12.75;;
47309;SDS011;33046;52.270;6.832;2023-04-29T07:59:44;17.17;;;13.48;;
47309;SDS011;33046;52.270;6.832;2023-04-29T08:01:51;13.77;;;11.68;;
47309;SDS011;33046;52.270;6.832;2023-04-29T08:03:58;16.77;;;13.15;;
47309;SDS011;33046;52.270;6.832;2023-04-29T08:06:05;14.85;;;12.25;;
47309;SDS011;33046;52.270;6.832;2023-04-29T08:08:14;16.73;;;10.82;;
47309;SDS011;33046;52.270;6.832;2023-04-29T08:10:22;16.85;;;12.60;;
47309;SDS011;33046;52.270;6.832;2023-04-29T08:12:29;18.52;;;12.57;;
47309;SDS011;33046;52.270;6.832;2023-04-29T08:14:35;18.58;;;11.90;;
47309;SDS011;33046;52.270;6.832;2023-04-29T08:16:42;16.95;;;12.90;;
47309;SDS011;33046;52.270;6.832;2023-04-29T08:18:49;14.77;;;11.35;;
47309;SDS011;33046;52.270;6.832;2023-04-29T08:20:56;14.35;;;11.90;;
47309;SDS011;33046;52.270;6.832;2023-04-29T08:23:03;14.57;;;12.05;;
47309;SDS011;33046;52.270;6.832;2023-04-29T08:25:11;12.35;;;11.15;;
47309;SDS011;33046;52.270;6.832;2023-04-29T08:27:18;15.23;;;11.73;;
47309;SDS011;33046;52.270;6.832;2023-04-29T08:29:24;12.20;;;10.98;;
47309;SDS011;33046;52.270;6.832;2023-04-29T08:31:31;14.80;;;10.90;;
47309;SDS011;33046;52.270;6.832;2023-04-29T08:33:38;15.70;;;12.68;;
47309;SDS011;33046;52.270;6.832;2023-04-29T08:35:45;13.13;;;11.73;;
47309;SDS011;33046;52.270;6.832;2023-04-29T08:37:52;13.85;;;11.52;;
47309;SDS011;33046;52.270;6.832;2023-04-29T08:39:58;12.88;;;10.88;;
47309;SDS011;33046;52.270;6.832;2023-04-29T08:42:09;16.13;;;11.45;;
47309;SDS011;33046;52.270;6.832;2023-04-29T08:44:16;13.55;;;10.60;;
47309;SDS011;33046;52.270;6.832;2023-04-29T08:46:23;13.75;;;11.52;;
47309;SDS011;33046;52.270;6.832;2023-04-29T08:48:31;12.57;;;10.63;;
47309;SDS011;33046;52.270;6.832;2023-04-29T08:50:39;14.55;;;10.75;;
47309;SDS011;33046;52.270;6.832;2023-04-29T08:52:48;14.13;;;9.68;;
47309;SDS011;33046;52.270;6.832;2023-04-29T08:54:55;13.52;;;11.48;;
47309;SDS011;33046;52.270;6.832;2023-04-29T08:57:02;15.60;;;10.73;;
47309;SDS011;33046;52.270;6.832;2023-04-29T08:59:11;11.90;;;9.48;;
47309;SDS011;33046;52.270;6.832;2023-04-29T09:01:20;15.93;;;11.00;;
47309;SDS011;33046;52.270;6.832;2023-04-29T09:03:29;14.60;;;9.93;;
47309;SDS011;33046;52.270;6.832;2023-04-29T09:05:40;12.05;;;10.07;;
47309;SDS011;33046;52.270;6.832;2023-04-29T09:07:50;25.60;;;10.52;;
47309;SDS011;33046;52.270;6.832;2023-04-29T09:09:57;14.98;;;11.68;;
47309;SDS011;33046;52.270;6.832;2023-04-29T09:12:04;11.63;;;10.00;;
47309;SDS011;33046;52.270;6.832;2023-04-29T09:14:12;12.93;;;10.00;;
47309;SDS011;33046;52.270;6.832;2023-04-29T09:16:20;16.55;;;10.57;;
47309;SDS011;33046;52.270;6.832;2023-04-29T09:18:42;15.70;;;10.73;;
47309;SDS011;33046;52.270;6.832;2023-04-29T09:20:50;11.25;;;9.88;;
47309;SDS011;33046;52.270;6.832;2023-04-29T09:22:58;10.90;;;9.80;;
47309;SDS011;33046;52.270;6.832;2023-04-29T09:25:11;12.02;;;9.23;;
47309;SDS011;33046;52.270;6.832;2023-04-29T09:27:25;12.43;;;10.15;;
47309;SDS011;33046;52.270;6.832;2023-04-29T09:29:33;12.63;;;9.55;;
47309;SDS011;33046;52.270;6.832;2023-04-29T09:31:41;11.00;;;9.52;;
47309;SDS011;33046;52.270;6.832;2023-04-29T09:33:48;12.15;;;9.93;;
47309;SDS011;33046;52.270;6.832;2023-04-29T09:35:56;11.60;;;9.98;;
47309;SDS011;33046;52.270;6.832;2023-04-29T09:38:07;11.73;;;9.60;;
47309;SDS011;33046;52.270;6.832;2023-04-29T09:40:26;11.35;;;9.20;;
47309;SDS011;33046;52.270;6.832;2023-04-29T09:42:40;14.75;;;9.70;;
47309;SDS011;33046;52.270;6.832;2023-04-29T09:44:48;12.60;;;9.82;;
47309;SDS011;33046;52.270;6.832;2023-04-29T09:46:55;12.70;;;10.00;;
47309;SDS011;33046;52.270;6.832;2023-04-29T09:49:03;10.13;;;9.10;;
47309;SDS011;33046;52.270;6.832;2023-04-29T09:53:33;11.52;;;9.57;;
47309;SDS011;33046;52.270;6.832;2023-04-29T09:58:05;14.48;;;9.90;;
47309;SDS011;33046;52.270;6.832;2023-04-29T10:00:13;10.57;;;9.48;;
47309;SDS011;33046;52.270;6.832;2023-04-29T10:02:20;11.95;;;9.68;;
47309;SDS011;33046;52.270;6.832;2023-04-29T10:04:28;12.38;;;9.70;;
47309;SDS011;33046;52.270;6.832;2023-04-29T10:06:40;13.85;;;8.75;;
47309;SDS011;33046;52.270;6.832;2023-04-29T10:08:47;10.93;;;9.60;;
47309;SDS011;33046;52.270;6.832;2023-04-29T10:10:54;10.20;;;9.07;;
47309;SDS011;33046;52.270;6.832;2023-04-29T10:13:04;9.57;;;8.18;;
47309;SDS011;33046;52.270;6.832;2023-04-29T10:15:14;12.65;;;9.63;;
47309;SDS011;33046;52.270;6.832;2023-04-29T10:17:27;15.65;;;9.02;;
47309;SDS011;33046;52.270;6.832;2023-04-29T10:19:43;10.80;;;8.45;;
47309;SDS011;33046;52.270;6.832;2023-04-29T10:21:57;8.73;;;7.57;;
47309;SDS011;33046;52.270;6.832;2023-04-29T10:24:10;7.93;;;6.30;;
47309;SDS011;33046;52.270;6.832;2023-04-29T10:26:18;8.02;;;7.00;;
47309;SDS011;33046;52.270;6.832;2023-04-29T10:28:26;11.07;;;7.25;;
47309;SDS011;33046;52.270;6.832;2023-04-29T10:30:38;8.38;;;7.40;;
47309;SDS011;33046;52.270;6.832;2023-04-29T10:32:47;7.82;;;6.82;;
47309;SDS011;33046;52.270;6.832;2023-04-29T10:34:56;8.00;;;7.20;;
47309;SDS011;33046;52.270;6.832;2023-04-29T10:37:04;9.77;;;7.38;;
47309;SDS011;33046;52.270;6.832;2023-04-29T10:39:15;8.27;;;7.03;;
47309;SDS011;33046;52.270;6.832;2023-04-29T10:41:30;12.23;;;7.75;;
47309;SDS011;33046;52.270;6.832;2023-04-29T10:43:41;6.90;;;5.80;;
47309;SDS011;33046;52.270;6.832;2023-04-29T10:45:49;7.80;;;6.60;;
47309;SDS011;33046;52.270;6.832;2023-04-29T10:48:23;9.50;;;7.13;;
47309;SDS011;33046;52.270;6.832;2023-04-29T10:50:30;11.38;;;7.43;;
47309;SDS011;33046;52.270;6.832;2023-04-29T10:52:53;8.98;;;6.40;;
47309;SDS011;33046;52.270;6.832;2023-04-29T10:55:01;6.05;;;5.45;;
47309;SDS011;33046;52.270;6.832;2023-04-29T10:57:08;7.97;;;5.65;;
47309;SDS011;33046;52.270;6.832;2023-04-29T11:01:52;7.10;;;5.57;;
47309;SDS011;33046;52.270;6.832;2023-04-29T11:04:00;6.75;;;5.70;;
47309;SDS011;33046;52.270;6.832;2023-04-29T11:06:08;5.80;;;4.72;;
47309;SDS011;33046;52.270;6.832;2023-04-29T11:08:18;6.53;;;5.22;;
47309;SDS011;33046;52.270;6.832;2023-04-29T11:10:34;5.20;;;4.68;;
47309;SDS011;33046;52.270;6.832;2023-04-29T11:12:41;6.13;;;4.80;;
47309;SDS011;33046;52.270;6.832;2023-04-29T11:14:49;7.20;;;4.70;;
47309;SDS011;33046;52.270;6.832;2023-04-29T11:16:58;3.90;;;3.47;;
47309;SDS011;33046;52.270;6.832;2023-04-29T11:19:07;6.53;;;4.78;;
47309;SDS011;33046;52.270;6.832;2023-04-29T11:21:14;5.65;;;5.05;;
47309;SDS011;33046;52.270;6.832;2023-04-29T11:23:22;5.60;;;4.13;;
47309;SDS011;33046;52.270;6.832;2023-04-29T11:25:30;6.47;;;4.93;;
47309;SDS011;33046;52.270;6.832;2023-04-29T11:27:37;6.88;;;5.28;;
47309;SDS011;33046;52.270;6.832;2023-04-29T11:29:45;6.75;;;5.32;;
47309;SDS011;33046;52.270;6.832;2023-04-29T11:31:58;6.07;;;4.28;;
47309;SDS011;33046;52.270;6.832;2023-04-29T11:34:05;5.93;;;4.57;;
47309;SDS011;33046;52.270;6.832;2023-04-29T11:36:12;6.18;;;5.13;;
47309;SDS011;33046;52.270;6.832;2023-04-29T11:38:22;6.90;;;4.00;;
47309;SDS011;33046;52.270;6.832;2023-04-29T11:40:29;6.65;;;4.45;;
47309;SDS011;33046;52.270;6.832;2023-04-29T11:42:39;5.82;;;3.70;;
47309;SDS011;33046;52.270;6.832;2023-04-29T11:44:50;7.15;;;5.03;;
47309;SDS011;33046;52.270;6.832;2023-04-29T11:47:01;5.45;;;4.75;;
47309;SDS011;33046;52.270;6.832;2023-04-29T11:49:08;6.40;;;3.42;;
47309;SDS011;33046;52.270;6.832;2023-04-29T11:51:15;6.30;;;4.20;;
47309;SDS011;33046;52.270;6.832;2023-04-29T11:53:23;4.95;;;3.47;;
47309;SDS011;33046;52.270;6.832;2023-04-29T11:55:31;5.38;;;4.43;;
47309;SDS011;33046;52.270;6.832;2023-04-29T11:57:38;4.32;;;3.92;;
47309;SDS011;33046;52.270;6.832;2023-04-29T11:59:45;5.50;;;4.47;;
47309;SDS011;33046;52.270;6.832;2023-04-29T12:01:52;5.57;;;3.95;;
47309;SDS011;33046;52.270;6.832;2023-04-29T12:04:00;3.95;;;3.45;;
47309;SDS011;33046;52.270;6.832;2023-04-29T12:06:07;3.72;;;2.83;;
47309;SDS011;33046;52.270;6.832;2023-04-29T12:08:13;6.88;;;2.75;;
47309;SDS011;33046;52.270;6.832;2023-04-29T12:10:20;29.90;;;4.28;;
47309;SDS011;33046;52.270;6.832;2023-04-29T12:12:27;55.75;;;7.28;;
47309;SDS011;33046;52.270;6.832;2023-04-29T12:14:34;13.70;;;4.53;;
47309;SDS011;33046;52.270;6.832;2023-04-29T12:16:43;4.47;;;3.00;;
47309;SDS011;33046;52.270;6.832;2023-04-29T12:18:50;6.30;;;3.30;;
47309;SDS011;33046;52.270;6.832;2023-04-29T12:20:59;5.05;;;2.85;;
47309;SDS011;33046;52.270;6.832;2023-04-29T12:23:10;3.95;;;3.53;;
47309;SDS011;33046;52.270;6.832;2023-04-29T12:25:17;62.85;;;57.10;;
47309;SDS011;33046;52.270;6.832;2023-04-29T12:27:24;203.57;;;136.48;;
47309;SDS011;33046;52.270;6.832;2023-04-29T12:29:32;149.20;;;102.07;;
47309;SDS011;33046;52.270;6.832;2023-04-29T12:31:38;106.90;;;70.32;;
47309;SDS011;33046;52.270;6.832;2023-04-29T12:33:45;211.57;;;154.15;;
47309;SDS011;33046;52.270;6.832;2023-04-29T12:35:53;1339.45;;;862.90;;
47309;SDS011;33046;52.270;6.832;2023-04-29T12:38:02;496.08;;;349.70;;
47309;SDS011;33046;52.270;6.832;2023-04-29T12:40:12;817.97;;;681.80;;
47309;SDS011;33046;52.270;6.832;2023-04-29T12:42:19;1256.38;;;743.20;;
47309;SDS011;33046;52.270;6.832;2023-04-29T12:44:26;593.63;;;386.20;;
47309;SDS011;33046;52.270;6.832;2023-04-29T12:46:40;298.02;;;206.02;;
47309;SDS011;33046;52.270;6.832;2023-04-29T12:48:47;397.60;;;290.23;;